sensor_id;sensor_type;location;lat;lon;timestamp;P1;durP1;ratioP1;P2;durP2;ratioP2
70416;SDS011;57839;51.332;12.410;2023-02-13T00:01:12;22.25;;;14.55;;
70416;SDS011;57839;51.332;12.410;2023-02-13T00:03:37;24.70;;;14.85;;
70416;SDS011;57839;51.332;12.410;2023-02-13T00:06:02;24.63;;;14.55;;
70416;SDS011;57839;51.332;12.410;2023-02-13T00:08:28;24.83;;;15.00;;
70416;SDS011;57839;51.332;12.410;2023-02-13T00:10:54;25.45;;;15.93;;
70416;SDS011;57839;51.332;12.410;2023-02-13T00:13:19;23.73;;;15.35;;
70416;SDS011;57839;51.332;12.410;2023-02-13T00:15:44;25.65;;;15.20;;
70416;SDS011;57839;51.332;12.410;2023-02-13T00:18:10;28.75;;;16.13;;
70416;SDS011;57839;51.332;12.410;2023-02-13T00:20:35;25.75;;;16.05;;
70416;SDS011;57839;51.332;12.410;2023-02-13T00:23:01;25.45;;;15.35;;
70416;SDS011;57839;51.332;12.410;2023-02-13T00:25:27;28.23;;;15.57;;
70416;SDS011;57839;51.332;12.410;2023-02-13T00:27:52;25.35;;;15.43;;
70416;SDS011;57839;51.332;12.410;2023-02-13T00:30:18;25.13;;;15.18;;
70416;SDS011;57839;51.332;12.410;2023-02-13T00:32:45;29.15;;;16.73;;
70416;SDS011;57839;51.332;12.410;2023-02-13T00:35:10;24.20;;;14.07;;
70416;SDS011;57839;51.332;12.410;2023-02-13T00:37:36;26.13;;;15.27;;
70416;SDS011;57839;51.332;12.410;2023-02-13T00:40:02;25.98;;;15.02;;
70416;SDS011;57839;51.332;12.410;2023-02-13T00:42:28;29.75;;;16.50;;
70416;SDS011;57839;51.332;12.410;2023-02-13T00:44:53;23.85;;;14.30;;
70416;SDS011;57839;51.332;12.410;2023-02-13T00:47:19;25.83;;;16.08;;
70416;SDS011;57839;51.332;12.410;2023-02-13T00:49:44;28.27;;;15.68;;
70416;SDS011;57839;51.332;12.410;2023-02-13T00:52:10;47.55;;;25.70;;
70416;SDS011;57839;51.332;12.410;2023-02-13T00:54:36;30.75;;;16.90;;
70416;SDS011;57839;51.332;12.410;2023-02-13T00:57:01;27.13;;;15.85;;
70416;SDS011;57839;51.332;12.410;2023-02-13T00:59:27;27.45;;;15.90;;
70416;SDS011;57839;51.332;12.410;2023-02-13T01:01:52;28.92;;;16.50;;
70416;SDS011;57839;51.332;12.410;2023-02-13T01:04:18;27.67;;;16.02;;
70416;SDS011;57839;51.332;12.410;2023-02-13T01:06:43;25.35;;;14.85;;
70416;SDS011;57839;51.332;12.410;2023-02-13T01:09:09;22.63;;;13.82;;
70416;SDS011;57839;51.332;12.410;2023-02-13T01:11:34;26.00;;;15.32;;
70416;SDS011;57839;51.332;12.410;2023-02-13T01:14:00;23.23;;;14.70;;
70416;SDS011;57839;51.332;12.410;2023-02-13T01:16:25;25.13;;;15.65;;
70416;SDS011;57839;51.332;12.410;2023-02-13T01:18:51;25.90;;;16.38;;
70416;SDS011;57839;51.332;12.410;2023-02-13T01:21:17;25.80;;;14.75;;
70416;SDS011;57839;51.332;12.410;2023-02-13T01:23:44;27.35;;;16.27;;
70416;SDS011;57839;51.332;12.410;2023-02-13T01:26:12;26.38;;;15.25;;
70416;SDS011;57839;51.332;12.410;2023-02-13T01:28:41;26.67;;;15.15;;
70416;SDS011;57839;51.332;12.410;2023-02-13T01:31:07;24.20;;;14.23;;
70416;SDS011;57839;51.332;12.410;2023-02-13T01:33:32;23.60;;;14.50;;
70416;SDS011;57839;51.332;12.410;2023-02-13T01:36:04;25.67;;;16.23;;
70416;SDS011;57839;51.332;12.410;2023-02-13T01:38:31;30.42;;;17.83;;
70416;SDS011;57839;51.332;12.410;2023-02-13T01:40:56;26.90;;;15.65;;
70416;SDS011;57839;51.332;12.410;2023-02-13T01:43:22;25.70;;;15.80;;
70416;SDS011;57839;51.332;12.410;2023-02-13T01:45:48;26.33;;;14.82;;
70416;SDS011;57839;51.332;12.410;2023-02-13T01:48:17;25.50;;;15.30;;
70416;SDS011;57839;51.332;12.410;2023-02-13T01:51:06;26.13;;;14.98;;
70416;SDS011;57839;51.332;12.410;2023-02-13T01:53:36;25.92;;;15.43;;
70416;SDS011;57839;51.332;12.410;2023-02-13T01:58:43;28.08;;;15.70;;
70416;SDS011;57839;51.332;12.410;2023-02-13T02:01:10;28.48;;;17.33;;
70416;SDS011;57839;51.332;12.410;2023-02-13T02:03:47;26.48;;;15.82;;
70416;SDS011;57839;51.332;12.410;2023-02-13T02:06:26;31.45;;;16.17;;
70416;SDS011;57839;51.332;12.410;2023-02-13T02:08:53;28.02;;;15.75;;
70416;SDS011;57839;51.332;12.410;2023-02-13T02:11:29;31.02;;;17.05;;
70416;SDS011;57839;51.332;12.410;2023-02-13T02:13:59;28.58;;;16.38;;
70416;SDS011;57839;51.332;12.410;2023-02-13T02:16:26;29.88;;;16.58;;
70416;SDS011;57839;51.332;12.410;2023-02-13T02:18:51;26.92;;;15.13;;
70416;SDS011;57839;51.332;12.410;2023-02-13T02:38:07;27.50;;;16.15;;
70416;SDS011;57839;51.332;12.410;2023-02-13T02:40:42;29.00;;;16.13;;
70416;SDS011;57839;51.332;12.410;2023-02-13T02:48:28;28.73;;;15.10;;
70416;SDS011;57839;51.332;12.410;2023-02-13T02:52:11;25.92;;;14.77;;
70416;SDS011;57839;51.332;12.410;2023-02-13T02:54:53;24.02;;;13.82;;
70416;SDS011;57839;51.332;12.410;2023-02-13T02:57:32;25.38;;;14.15;;
70416;SDS011;57839;51.332;12.410;2023-02-13T03:00:24;24.35;;;13.90;;
70416;SDS011;57839;51.332;12.410;2023-02-13T03:03:14;23.50;;;12.27;;
70416;SDS011;57839;51.332;12.410;2023-02-13T03:06:00;19.58;;;11.93;;
70416;SDS011;57839;51.332;12.410;2023-02-13T03:08:38;22.13;;;12.43;;
70416;SDS011;57839;51.332;12.410;2023-02-13T03:11:27;23.40;;;12.48;;
70416;SDS011;57839;51.332;12.410;2023-02-13T03:14:12;20.95;;;11.43;;
70416;SDS011;57839;51.332;12.410;2023-02-13T03:16:39;18.02;;;10.95;;
70416;SDS011;57839;51.332;12.410;2023-02-13T03:19:32;18.00;;;10.88;;
70416;SDS011;57839;51.332;12.410;2023-02-13T03:28:08;14.23;;;8.77;;
70416;SDS011;57839;51.332;12.410;2023-02-13T03:31:22;18.15;;;9.77;;
70416;SDS011;57839;51.332;12.410;2023-02-13T03:34:01;18.20;;;9.35;;
70416;SDS011;57839;51.332;12.410;2023-02-13T03:36:42;16.75;;;8.60;;
70416;SDS011;57839;51.332;12.410;2023-02-13T03:42:03;14.70;;;8.85;;
70416;SDS011;57839;51.332;12.410;2023-02-13T03:44:45;14.30;;;8.20;;
70416;SDS011;57839;51.332;12.410;2023-02-13T03:47:36;14.52;;;8.32;;
70416;SDS011;57839;51.332;12.410;2023-02-13T03:50:03;14.35;;;8.15;;
70416;SDS011;57839;51.332;12.410;2023-02-13T03:56:00;13.63;;;8.85;;
70416;SDS011;57839;51.332;12.410;2023-02-13T03:58:27;15.68;;;8.93;;
70416;SDS011;57839;51.332;12.410;2023-02-13T04:01:16;15.57;;;9.02;;
70416;SDS011;57839;51.332;12.410;2023-02-13T04:06:31;14.43;;;8.73;;
70416;SDS011;57839;51.332;12.410;2023-02-13T04:08:58;14.93;;;9.15;;
70416;SDS011;57839;51.332;12.410;2023-02-13T04:11:29;17.08;;;9.38;;
70416;SDS011;57839;51.332;12.410;2023-02-13T04:14:00;15.20;;;9.63;;
70416;SDS011;57839;51.332;12.410;2023-02-13T04:16:36;17.33;;;10.43;;
70416;SDS011;57839;51.332;12.410;2023-02-13T04:19:04;16.73;;;9.98;;
70416;SDS011;57839;51.332;12.410;2023-02-13T04:21:31;16.58;;;9.88;;
70416;SDS011;57839;51.332;12.410;2023-02-13T04:23:58;18.15;;;10.68;;
70416;SDS011;57839;51.332;12.410;2023-02-13T04:26:23;15.40;;;9.30;;
70416;SDS011;57839;51.332;12.410;2023-02-13T04:28:50;15.40;;;9.40;;
70416;SDS011;57839;51.332;12.410;2023-02-13T04:31:15;15.63;;;8.93;;
70416;SDS011;57839;51.332;12.410;2023-02-13T04:33:41;14.02;;;8.38;;
70416;SDS011;57839;51.332;12.410;2023-02-13T04:36:06;14.23;;;9.15;;
70416;SDS011;57839;51.332;12.410;2023-02-13T04:38:32;15.10;;;8.60;;
70416;SDS011;57839;51.332;12.410;2023-02-13T04:40:58;13.38;;;9.00;;
70416;SDS011;57839;51.332;12.410;2023-02-13T04:43:23;13.65;;;8.27;;
70416;SDS011;57839;51.332;12.410;2023-02-13T04:45:49;14.55;;;8.18;;
70416;SDS011;57839;51.332;12.410;2023-02-13T04:48:15;12.02;;;8.05;;
70416;SDS011;57839;51.332;12.410;2023-02-13T04:50:41;12.77;;;8.13;;
70416;SDS011;57839;51.332;12.410;2023-02-13T04:53:07;12.32;;;7.35;;
70416;SDS011;57839;51.332;12.410;2023-02-13T04:55:32;11.77;;;7.13;;
70416;SDS011;57839;51.332;12.410;2023-02-13T04:57:58;14.35;;;7.72;;
70416;SDS011;57839;51.332;12.410;2023-02-13T05:00:25;14.75;;;7.82;;
70416;SDS011;57839;51.332;12.410;2023-02-13T05:02:51;12.85;;;7.60;;
70416;SDS011;57839;51.332;12.410;2023-02-13T05:05:17;10.07;;;6.38;;
70416;SDS011;57839;51.332;12.410;2023-02-13T05:07:43;12.85;;;7.68;;
70416;SDS011;57839;51.332;12.410;2023-02-13T05:10:09;13.88;;;7.95;;
70416;SDS011;57839;51.332;12.410;2023-02-13T05:12:35;14.23;;;7.38;;
70416;SDS011;57839;51.332;12.410;2023-02-13T05:15:01;14.48;;;7.97;;
70416;SDS011;57839;51.332;12.410;2023-02-13T05:17:26;11.65;;;7.10;;
70416;SDS011;57839;51.332;12.410;2023-02-13T05:19:52;13.27;;;7.60;;
70416;SDS011;57839;51.332;12.410;2023-02-13T05:22:18;11.20;;;7.00;;
70416;SDS011;57839;51.332;12.410;2023-02-13T05:25:02;12.23;;;6.57;;
70416;SDS011;57839;51.332;12.410;2023-02-13T05:27:27;13.02;;;6.60;;
70416;SDS011;57839;51.332;12.410;2023-02-13T05:29:53;11.43;;;6.38;;
70416;SDS011;57839;51.332;12.410;2023-02-13T05:32:19;9.18;;;6.05;;
70416;SDS011;57839;51.332;12.410;2023-02-13T05:34:44;10.05;;;6.05;;
70416;SDS011;57839;51.332;12.410;2023-02-13T05:37:10;11.32;;;6.80;;
70416;SDS011;57839;51.332;12.410;2023-02-13T05:39:36;13.40;;;6.85;;
70416;SDS011;57839;51.332;12.410;2023-02-13T05:42:01;11.02;;;6.65;;
70416;SDS011;57839;51.332;12.410;2023-02-13T05:44:29;11.15;;;6.35;;
70416;SDS011;57839;51.332;12.410;2023-02-13T05:46:55;13.90;;;6.72;;
70416;SDS011;57839;51.332;12.410;2023-02-13T05:49:20;10.38;;;6.07;;
70416;SDS011;57839;51.332;12.410;2023-02-13T05:51:47;12.23;;;6.80;;
70416;SDS011;57839;51.332;12.410;2023-02-13T05:54:13;15.45;;;7.78;;
70416;SDS011;57839;51.332;12.410;2023-02-13T05:56:38;12.18;;;6.63;;
70416;SDS011;57839;51.332;12.410;2023-02-13T05:59:04;11.80;;;6.93;;
70416;SDS011;57839;51.332;12.410;2023-02-13T06:01:30;15.27;;;8.07;;
70416;SDS011;57839;51.332;12.410;2023-02-13T06:03:56;13.77;;;8.60;;
70416;SDS011;57839;51.332;12.410;2023-02-13T06:06:21;14.35;;;8.50;;
70416;SDS011;57839;51.332;12.410;2023-02-13T06:08:47;14.50;;;7.50;;
70416;SDS011;57839;51.332;12.410;2023-02-13T06:11:12;13.85;;;7.65;;
70416;SDS011;57839;51.332;12.410;2023-02-13T06:13:38;15.10;;;8.15;;
70416;SDS011;57839;51.332;12.410;2023-02-13T06:16:08;12.60;;;7.22;;
70416;SDS011;57839;51.332;12.410;2023-02-13T06:18:34;15.73;;;7.93;;
70416;SDS011;57839;51.332;12.410;2023-02-13T06:21:00;11.70;;;7.38;;
70416;SDS011;57839;51.332;12.410;2023-02-13T06:23:26;14.73;;;8.20;;
70416;SDS011;57839;51.332;12.410;2023-02-13T06:25:52;11.85;;;7.32;;
70416;SDS011;57839;51.332;12.410;2023-02-13T06:28:18;13.68;;;7.47;;
70416;SDS011;57839;51.332;12.410;2023-02-13T06:30:43;12.50;;;7.40;;
70416;SDS011;57839;51.332;12.410;2023-02-13T06:33:09;13.07;;;7.93;;
70416;SDS011;57839;51.332;12.410;2023-02-13T06:35:35;12.60;;;7.65;;
70416;SDS011;57839;51.332;12.410;2023-02-13T06:38:00;12.18;;;7.07;;
70416;SDS011;57839;51.332;12.410;2023-02-13T06:40:26;12.23;;;7.30;;
70416;SDS011;57839;51.332;12.410;2023-02-13T06:42:51;13.63;;;7.72;;
70416;SDS011;57839;51.332;12.410;2023-02-13T06:45:17;14.82;;;7.68;;
70416;SDS011;57839;51.332;12.410;2023-02-13T06:47:43;13.57;;;7.55;;
70416;SDS011;57839;51.332;12.410;2023-02-13T06:50:11;12.10;;;7.88;;
70416;SDS011;57839;51.332;12.410;2023-02-13T06:52:37;14.68;;;7.75;;
70416;SDS011;57839;51.332;12.410;2023-02-13T06:55:03;12.98;;;7.82;;
70416;SDS011;57839;51.332;12.410;2023-02-13T06:57:30;12.30;;;7.30;;
70416;SDS011;57839;51.332;12.410;2023-02-13T06:59:59;12.85;;;7.90;;
70416;SDS011;57839;51.332;12.410;2023-02-13T07:02:25;12.07;;;7.65;;
70416;SDS011;57839;51.332;12.410;2023-02-13T07:04:50;12.57;;;6.70;;
70416;SDS011;57839;51.332;12.410;2023-02-13T07:07:16;11.10;;;6.95;;
70416;SDS011;57839;51.332;12.410;2023-02-13T07:09:41;10.60;;;7.07;;
70416;SDS011;57839;51.332;12.410;2023-02-13T07:12:07;9.20;;;6.13;;
70416;SDS011;57839;51.332;12.410;2023-02-13T07:14:32;10.63;;;7.38;;
70416;SDS011;57839;51.332;12.410;2023-02-13T07:16:58;9.75;;;6.93;;
70416;SDS011;57839;51.332;12.410;2023-02-13T07:19:23;11.32;;;7.40;;
70416;SDS011;57839;51.332;12.410;2023-02-13T07:21:49;10.73;;;7.28;;
70416;SDS011;57839;51.332;12.410;2023-02-13T07:24:14;11.38;;;7.03;;
70416;SDS011;57839;51.332;12.410;2023-02-13T07:26:40;10.88;;;7.10;;
70416;SDS011;57839;51.332;12.410;2023-02-13T07:29:05;12.10;;;7.63;;
70416;SDS011;57839;51.332;12.410;2023-02-13T07:31:32;9.85;;;7.10;;
70416;SDS011;57839;51.332;12.410;2023-02-13T07:33:58;10.45;;;7.43;;
70416;SDS011;57839;51.332;12.410;2023-02-13T07:36:24;12.60;;;8.50;;
70416;SDS011;57839;51.332;12.410;2023-02-13T07:38:50;11.52;;;7.35;;
70416;SDS011;57839;51.332;12.410;2023-02-13T07:41:16;13.45;;;8.45;;
70416;SDS011;57839;51.332;12.410;2023-02-13T07:43:41;9.80;;;7.35;;
70416;SDS011;57839;51.332;12.410;2023-02-13T07:46:07;10.77;;;7.25;;
70416;SDS011;57839;51.332;12.410;2023-02-13T07:48:33;11.60;;;8.02;;
70416;SDS011;57839;51.332;12.410;2023-02-13T07:51:00;12.93;;;8.82;;
70416;SDS011;57839;51.332;12.410;2023-02-13T07:53:27;15.30;;;8.25;;
70416;SDS011;57839;51.332;12.410;2023-02-13T07:55:53;13.77;;;8.13;;
70416;SDS011;57839;51.332;12.410;2023-02-13T07:58:18;13.20;;;8.43;;
70416;SDS011;57839;51.332;12.410;2023-02-13T08:00:45;14.50;;;9.10;;
70416;SDS011;57839;51.332;12.410;2023-02-13T08:03:10;13.52;;;8.18;;
70416;SDS011;57839;51.332;12.410;2023-02-13T08:05:36;13.70;;;8.77;;
70416;SDS011;57839;51.332;12.410;2023-02-13T08:08:03;12.45;;;7.85;;
70416;SDS011;57839;51.332;12.410;2023-02-13T08:10:29;12.85;;;8.35;;
70416;SDS011;57839;51.332;12.410;2023-02-13T08:15:39;13.50;;;8.30;;
70416;SDS011;57839;51.332;12.410;2023-02-13T08:18:05;12.95;;;7.75;;
70416;SDS011;57839;51.332;12.410;2023-02-13T08:20:30;13.52;;;8.65;;
70416;SDS011;57839;51.332;12.410;2023-02-13T08:23:03;12.98;;;8.45;;
70416;SDS011;57839;51.332;12.410;2023-02-13T08:25:29;12.65;;;8.20;;
70416;SDS011;57839;51.332;12.410;2023-02-13T08:27:55;12.50;;;8.25;;
70416;SDS011;57839;51.332;12.410;2023-02-13T08:30:23;11.40;;;8.30;;
70416;SDS011;57839;51.332;12.410;2023-02-13T08:32:48;11.93;;;8.48;;
70416;SDS011;57839;51.332;12.410;2023-02-13T08:35:14;13.07;;;8.63;;
70416;SDS011;57839;51.332;12.410;2023-02-13T08:37:39;11.52;;;7.90;;
70416;SDS011;57839;51.332;12.410;2023-02-13T08:40:05;11.90;;;8.05;;
70416;SDS011;57839;51.332;12.410;2023-02-13T08:42:35;11.95;;;8.32;;
70416;SDS011;57839;51.332;12.410;2023-02-13T08:45:01;11.98;;;8.45;;
70416;SDS011;57839;51.332;12.410;2023-02-13T08:47:27;12.10;;;8.57;;
70416;SDS011;57839;51.332;12.410;2023-02-13T08:49:52;13.13;;;8.85;;
70416;SDS011;57839;51.332;12.410;2023-02-13T08:52:18;11.82;;;8.25;;
70416;SDS011;57839;51.332;12.410;2023-02-13T08:54:44;12.18;;;8.80;;
70416;SDS011;57839;51.332;12.410;2023-02-13T08:57:09;13.52;;;9.15;;
70416;SDS011;57839;51.332;12.410;2023-02-13T08:59:35;13.35;;;8.23;;
70416;SDS011;57839;51.332;12.410;2023-02-13T09:02:01;13.10;;;8.75;;
70416;SDS011;57839;51.332;12.410;2023-02-13T09:04:26;14.10;;;9.00;;
70416;SDS011;57839;51.332;12.410;2023-02-13T09:06:52;13.73;;;9.40;;
70416;SDS011;57839;51.332;12.410;2023-02-13T09:09:18;13.18;;;8.73;;
70416;SDS011;57839;51.332;12.410;2023-02-13T09:11:43;15.70;;;9.05;;
70416;SDS011;57839;51.332;12.410;2023-02-13T09:14:09;11.23;;;8.23;;
70416;SDS011;57839;51.332;12.410;2023-02-13T09:16:35;12.13;;;8.63;;
70416;SDS011;57839;51.332;12.410;2023-02-13T09:19:00;12.55;;;8.43;;
70416;SDS011;57839;51.332;12.410;2023-02-13T09:21:26;11.93;;;7.65;;
70416;SDS011;57839;51.332;12.410;2023-02-13T09:23:52;10.68;;;7.70;;
70416;SDS011;57839;51.332;12.410;2023-02-13T09:26:19;10.20;;;7.25;;
70416;SDS011;57839;51.332;12.410;2023-02-13T09:28:45;11.90;;;7.90;;
70416;SDS011;57839;51.332;12.410;2023-02-13T09:31:18;10.88;;;7.30;;
70416;SDS011;57839;51.332;12.410;2023-02-13T09:33:44;9.10;;;6.68;;
70416;SDS011;57839;51.332;12.410;2023-02-13T09:36:12;10.20;;;6.93;;
70416;SDS011;57839;51.332;12.410;2023-02-13T09:38:39;11.43;;;7.80;;
70416;SDS011;57839;51.332;12.410;2023-02-13T09:41:15;12.38;;;9.02;;
70416;SDS011;57839;51.332;12.410;2023-02-13T09:43:57;14.15;;;9.57;;
70416;SDS011;57839;51.332;12.410;2023-02-13T09:46:32;17.50;;;11.45;;
70416;SDS011;57839;51.332;12.410;2023-02-13T09:49:01;14.05;;;10.10;;
70416;SDS011;57839;51.332;12.410;2023-02-13T09:51:30;15.18;;;10.15;;
70416;SDS011;57839;51.332;12.410;2023-02-13T09:54:00;16.45;;;10.82;;
70416;SDS011;57839;51.332;12.410;2023-02-13T10:01:59;18.20;;;11.75;;
70416;SDS011;57839;51.332;12.410;2023-02-13T10:04:28;16.90;;;11.73;;
70416;SDS011;57839;51.332;12.410;2023-02-13T10:07:11;17.25;;;11.60;;
70416;SDS011;57839;51.332;12.410;2023-02-13T10:17:46;16.00;;;11.27;;
70416;SDS011;57839;51.332;12.410;2023-02-13T10:20:40;17.23;;;11.23;;
70416;SDS011;57839;51.332;12.410;2023-02-13T10:23:44;16.67;;;11.43;;
70416;SDS011;57839;51.332;12.410;2023-02-13T10:26:11;17.25;;;11.27;;
70416;SDS011;57839;51.332;12.410;2023-02-13T10:28:54;16.02;;;10.40;;
70416;SDS011;57839;51.332;12.410;2023-02-13T10:31:45;15.52;;;11.05;;
70416;SDS011;57839;51.332;12.410;2023-02-13T10:34:16;15.32;;;10.40;;
70416;SDS011;57839;51.332;12.410;2023-02-13T10:36:43;17.35;;;10.98;;
70416;SDS011;57839;51.332;12.410;2023-02-13T10:44:32;13.63;;;9.55;;
70416;SDS011;57839;51.332;12.410;2023-02-13T10:52:48;14.13;;;9.27;;
70416;SDS011;57839;51.332;12.410;2023-02-13T11:00:33;8.68;;;6.88;;
70416;SDS011;57839;51.332;12.410;2023-02-13T11:03:26;10.18;;;7.80;;
70416;SDS011;57839;51.332;12.410;2023-02-13T11:05:53;12.27;;;8.13;;
70416;SDS011;57839;51.332;12.410;2023-02-13T11:08:21;10.60;;;7.22;;
70416;SDS011;57839;51.332;12.410;2023-02-13T11:10:51;14.70;;;8.05;;
70416;SDS011;57839;51.332;12.410;2023-02-13T11:13:18;11.25;;;7.72;;
70416;SDS011;57839;51.332;12.410;2023-02-13T11:15:58;10.35;;;7.68;;
70416;SDS011;57839;51.332;12.410;2023-02-13T11:18:42;14.43;;;9.70;;
70416;SDS011;57839;51.332;12.410;2023-02-13T11:21:20;20.30;;;11.75;;
70416;SDS011;57839;51.332;12.410;2023-02-13T11:23:51;10.23;;;7.60;;
70416;SDS011;57839;51.332;12.410;2023-02-13T11:26:23;10.27;;;7.20;;
70416;SDS011;57839;51.332;12.410;2023-02-13T11:28:56;8.68;;;7.05;;
70416;SDS011;57839;51.332;12.410;2023-02-13T11:31:38;11.73;;;7.97;;
70416;SDS011;57839;51.332;12.410;2023-02-13T11:36:52;11.98;;;8.05;;
70416;SDS011;57839;51.332;12.410;2023-02-13T11:39:20;10.73;;;7.97;;
70416;SDS011;57839;51.332;12.410;2023-02-13T11:41:47;11.52;;;8.75;;
70416;SDS011;57839;51.332;12.410;2023-02-13T11:44:23;12.02;;;8.10;;
70416;SDS011;57839;51.332;12.410;2023-02-13T11:46:54;13.13;;;8.10;;
70416;SDS011;57839;51.332;12.410;2023-02-13T11:49:30;14.77;;;9.23;;
70416;SDS011;57839;51.332;12.410;2023-02-13T11:52:01;12.48;;;8.10;;
70416;SDS011;57839;51.332;12.410;2023-02-13T11:56:56;9.07;;;6.50;;
70416;SDS011;57839;51.332;12.410;2023-02-13T11:59:30;8.07;;;5.78;;
70416;SDS011;57839;51.332;12.410;2023-02-13T12:02:18;8.73;;;6.50;;
70416;SDS011;57839;51.332;12.410;2023-02-13T12:04:46;9.77;;;6.35;;
70416;SDS011;57839;51.332;12.410;2023-02-13T12:07:25;8.00;;;5.75;;
70416;SDS011;57839;51.332;12.410;2023-02-13T12:10:17;6.68;;;5.40;;
70416;SDS011;57839;51.332;12.410;2023-02-13T12:12:54;8.77;;;5.70;;
70416;SDS011;57839;51.332;12.410;2023-02-13T12:15:26;8.50;;;6.05;;
70416;SDS011;57839;51.332;12.410;2023-02-13T12:18:15;8.63;;;5.50;;
70416;SDS011;57839;51.332;12.410;2023-02-13T12:20:51;6.43;;;5.22;;
70416;SDS011;57839;51.332;12.410;2023-02-13T12:25:56;7.93;;;5.90;;
70416;SDS011;57839;51.332;12.410;2023-02-13T12:28:32;9.32;;;5.45;;
70416;SDS011;57839;51.332;12.410;2023-02-13T12:31:07;9.85;;;5.40;;
70416;SDS011;57839;51.332;12.410;2023-02-13T12:36:09;9.10;;;5.65;;
70416;SDS011;57839;51.332;12.410;2023-02-13T12:38:58;7.38;;;5.63;;
70416;SDS011;57839;51.332;12.410;2023-02-13T12:45:30;8.75;;;6.47;;
70416;SDS011;57839;51.332;12.410;2023-02-13T12:48:08;8.85;;;6.40;;
70416;SDS011;57839;51.332;12.410;2023-02-13T12:58:40;61.17;;;31.27;;
70416;SDS011;57839;51.332;12.410;2023-02-13T13:01:16;10.35;;;7.45;;
70416;SDS011;57839;51.332;12.410;2023-02-13T13:12:21;11.68;;;5.78;;
70416;SDS011;57839;51.332;12.410;2023-02-13T13:20:34;11.30;;;6.75;;
70416;SDS011;57839;51.332;12.410;2023-02-13T13:23:22;8.00;;;6.47;;
70416;SDS011;57839;51.332;12.410;2023-02-13T13:28:51;8.60;;;6.88;;
70416;SDS011;57839;51.332;12.410;2023-02-13T13:31:19;10.07;;;6.57;;
70416;SDS011;57839;51.332;12.410;2023-02-13T13:33:48;8.30;;;7.20;;
70416;SDS011;57839;51.332;12.410;2023-02-13T13:44:03;11.57;;;8.73;;
70416;SDS011;57839;51.332;12.410;2023-02-13T13:46:51;11.27;;;8.88;;
70416;SDS011;57839;51.332;12.410;2023-02-13T13:54:42;9.97;;;8.27;;
70416;SDS011;57839;51.332;12.410;2023-02-13T13:57:10;10.35;;;8.48;;
70416;SDS011;57839;51.332;12.410;2023-02-13T14:05:07;48.28;;;25.38;;
70416;SDS011;57839;51.332;12.410;2023-02-13T14:07:35;13.57;;;9.98;;
70416;SDS011;57839;51.332;12.410;2023-02-13T14:10:02;14.07;;;9.98;;
70416;SDS011;57839;51.332;12.410;2023-02-13T14:14:57;12.15;;;9.30;;
70416;SDS011;57839;51.332;12.410;2023-02-13T14:22:51;12.18;;;8.57;;
70416;SDS011;57839;51.332;12.410;2023-02-13T14:25:23;11.57;;;9.15;;
70416;SDS011;57839;51.332;12.410;2023-02-13T14:27:56;11.55;;;8.98;;
70416;SDS011;57839;51.332;12.410;2023-02-13T14:32:53;12.77;;;9.57;;
70416;SDS011;57839;51.332;12.410;2023-02-13T14:35:22;12.27;;;9.00;;
70416;SDS011;57839;51.332;12.410;2023-02-13T14:37:56;12.48;;;8.52;;
70416;SDS011;57839;51.332;12.410;2023-02-13T14:45:29;14.60;;;9.38;;
70416;SDS011;57839;51.332;12.410;2023-02-13T14:47:57;13.75;;;9.07;;
70416;SDS011;57839;51.332;12.410;2023-02-13T14:50:39;11.88;;;8.55;;
70416;SDS011;57839;51.332;12.410;2023-02-13T14:53:19;11.50;;;8.73;;
70416;SDS011;57839;51.332;12.410;2023-02-13T14:55:49;12.77;;;9.13;;
70416;SDS011;57839;51.332;12.410;2023-02-13T14:58:28;14.43;;;8.77;;
70416;SDS011;57839;51.332;12.410;2023-02-13T15:03:45;11.32;;;8.07;;
70416;SDS011;57839;51.332;12.410;2023-02-13T15:06:16;11.32;;;8.13;;
70416;SDS011;57839;51.332;12.410;2023-02-13T15:08:50;12.23;;;8.63;;
70416;SDS011;57839;51.332;12.410;2023-02-13T15:11:38;12.85;;;8.25;;
70416;SDS011;57839;51.332;12.410;2023-02-13T15:19:30;13.70;;;9.02;;
70416;SDS011;57839;51.332;12.410;2023-02-13T15:22:00;15.40;;;9.30;;
70416;SDS011;57839;51.332;12.410;2023-02-13T15:24:28;12.30;;;8.95;;
70416;SDS011;57839;51.332;12.410;2023-02-13T15:27:04;14.75;;;8.35;;
70416;SDS011;57839;51.332;12.410;2023-02-13T15:29:30;10.95;;;7.53;;
70416;SDS011;57839;51.332;12.410;2023-02-13T15:31:56;11.20;;;8.55;;
70416;SDS011;57839;51.332;12.410;2023-02-13T15:36:51;12.82;;;8.60;;
70416;SDS011;57839;51.332;12.410;2023-02-13T15:39:25;12.98;;;8.40;;
70416;SDS011;57839;51.332;12.410;2023-02-13T15:41:53;11.85;;;8.05;;
70416;SDS011;57839;51.332;12.410;2023-02-13T15:44:42;12.00;;;8.65;;
70416;SDS011;57839;51.332;12.410;2023-02-13T15:47:30;11.40;;;8.30;;
70416;SDS011;57839;51.332;12.410;2023-02-13T15:49:55;12.68;;;8.35;;
70416;SDS011;57839;51.332;12.410;2023-02-13T15:54:59;14.00;;;9.15;;
70416;SDS011;57839;51.332;12.410;2023-02-13T15:57:25;12.68;;;8.48;;
70416;SDS011;57839;51.332;12.410;2023-02-13T15:59:51;52.50;;;29.73;;
70416;SDS011;57839;51.332;12.410;2023-02-13T16:02:39;13.00;;;9.02;;
70416;SDS011;57839;51.332;12.410;2023-02-13T16:05:08;17.73;;;9.88;;
70416;SDS011;57839;51.332;12.410;2023-02-13T16:08:19;16.30;;;9.48;;
70416;SDS011;57839;51.332;12.410;2023-02-13T16:12:57;13.35;;;9.35;;
70416;SDS011;57839;51.332;12.410;2023-02-13T16:15:25;14.75;;;9.43;;
70416;SDS011;57839;51.332;12.410;2023-02-13T16:17:52;12.15;;;9.43;;
70416;SDS011;57839;51.332;12.410;2023-02-13T16:20:19;13.98;;;8.77;;
70416;SDS011;57839;51.332;12.410;2023-02-13T16:22:47;12.98;;;8.98;;
70416;SDS011;57839;51.332;12.410;2023-02-13T16:25:20;14.82;;;9.48;;
70416;SDS011;57839;51.332;12.410;2023-02-13T16:27:51;11.90;;;8.70;;
70416;SDS011;57839;51.332;12.410;2023-02-13T16:30:26;13.88;;;9.77;;
70416;SDS011;57839;51.332;12.410;2023-02-13T16:33:11;15.75;;;9.65;;
70416;SDS011;57839;51.332;12.410;2023-02-13T16:35:46;11.93;;;9.50;;
70416;SDS011;57839;51.332;12.410;2023-02-13T16:38:23;14.05;;;9.88;;
70416;SDS011;57839;51.332;12.410;2023-02-13T16:40:54;13.82;;;9.52;;
70416;SDS011;57839;51.332;12.410;2023-02-13T16:43:37;12.40;;;8.88;;
70416;SDS011;57839;51.332;12.410;2023-02-13T16:48:40;19.73;;;13.10;;
70416;SDS011;57839;51.332;12.410;2023-02-13T16:51:07;14.45;;;9.55;;
70416;SDS011;57839;51.332;12.410;2023-02-13T16:53:33;12.93;;;9.05;;
70416;SDS011;57839;51.332;12.410;2023-02-13T16:56:06;15.30;;;9.13;;
70416;SDS011;57839;51.332;12.410;2023-02-13T16:58:33;12.95;;;9.25;;
70416;SDS011;57839;51.332;12.410;2023-02-13T17:01:00;13.52;;;9.20;;
70416;SDS011;57839;51.332;12.410;2023-02-13T17:03:27;14.70;;;9.48;;
70416;SDS011;57839;51.332;12.410;2023-02-13T17:05:52;15.68;;;10.20;;
70416;SDS011;57839;51.332;12.410;2023-02-13T17:08:19;14.02;;;9.93;;
70416;SDS011;57839;51.332;12.410;2023-02-13T17:10:59;13.18;;;9.52;;
70416;SDS011;57839;51.332;12.410;2023-02-13T17:13:32;12.55;;;9.02;;
70416;SDS011;57839;51.332;12.410;2023-02-13T17:15:58;12.15;;;8.82;;
70416;SDS011;57839;51.332;12.410;2023-02-13T17:18:24;13.15;;;9.48;;
70416;SDS011;57839;51.332;12.410;2023-02-13T17:20:51;15.50;;;10.75;;